Time;durP1;ratioP1;P1;durP2;ratioP2;P2;SDS_P1;SDS_P2;PMS_P1;PMS_P2;Temp;Humidity;BMP_temperature;BMP_pressure;BME280_temperature;BME280_humidity;BME280_pressure;Samples;Min_cycle;Max_cycle;Signal;HPM_P1;HPM_P2
2023/04/10 00:00:11;;;;;;;40.67;32.93;;;8.10;99.90;;;;;;5031121;28;20840;-47
2023/04/10 00:02:39;;;;;;;37.70;32.13;;;8.00;99.90;;;;;;5032495;28;20834;-47
2023/04/10 00:05:07;;;;;;;49.93;31.37;;;8.20;99.90;;;;;;5031136;28;20465;-48
2023/04/10 00:07:34;;;;;;;40.80;32.10;;;8.10;99.90;;;;;;5030417;28;20951;-48
2023/04/10 00:10:00;;;;;;;46.50;33.00;;;7.80;99.90;;;;;;5030242;28;20447;-48
2023/04/10 00:12:27;;;;;;;42.33;31.53;;;8.00;99.90;;;;;;5031370;28;20497;-48
2023/04/10 00:14:54;;;;;;;37.57;30.70;;;7.90;99.90;;;;;;5034004;28;20466;-47
2023/04/10 00:17:20;;;;;;;46.97;32.77;;;8.00;99.90;;;;;;5033945;28;20802;-47
2023/04/10 00:19:48;;;;;;;41.73;31.90;;;8.10;99.90;;;;;;5033489;28;20498;-47
2023/04/10 00:22:15;;;;;;;45.60;31.00;;;7.90;99.90;;;;;;5034088;28;20542;-47
2023/04/10 00:24:41;;;;;;;46.90;32.30;;;8.10;99.90;;;;;;5033727;28;20455;-47
2023/04/10 00:27:08;;;;;;;41.13;31.77;;;8.20;99.90;;;;;;5033767;28;20919;-47
2023/04/10 00:29:35;;;;;;;45.00;33.30;;;8.00;99.90;;;;;;5032028;28;20459;-47
2023/04/10 00:32:02;;;;;;;40.73;32.30;;;7.90;99.90;;;;;;5033712;28;20898;-47
2023/04/10 00:34:28;;;;;;;37.57;29.27;;;8.00;99.90;;;;;;5032236;28;20467;-47
2023/04/10 00:36:56;;;;;;;40.43;34.00;;;8.00;99.90;;;;;;5033579;28;20434;-47
2023/04/10 00:39:23;;;;;;;38.27;30.20;;;7.30;99.90;;;;;;5031989;28;20964;-47
2023/04/10 00:41:50;;;;;;;45.67;32.87;;;8.00;99.90;;;;;;5033516;28;20850;-48
2023/04/10 00:44:16;;;;;;;39.73;30.13;;;8.00;99.90;;;;;;5033485;28;20462;-47
2023/04/10 00:46:43;;;;;;;35.80;28.00;;;7.70;99.90;;;;;;5033439;28;20428;-47
2023/04/10 00:49:10;;;;;;;39.73;27.10;;;7.90;99.90;;;;;;5033055;28;20427;-47
2023/04/10 00:51:37;;;;;;;38.43;29.50;;;8.50;99.90;;;;;;5032118;28;20473;-46
2023/04/10 00:54:06;;;;;;;35.37;26.30;;;8.10;99.90;;;;;;4997005;28;1008779;-48
2023/04/10 00:56:33;;;;;;;33.13;24.80;;;7.70;99.90;;;;;;5034504;28;20204;-47
2023/04/10 00:59:01;;;;;;;29.77;24.30;;;7.60;99.90;;;;;;5034063;28;20442;-46
2023/04/10 01:01:28;;;;;;;33.07;25.77;;;8.00;99.90;;;;;;5034479;28;20413;-47
2023/04/10 01:03:57;;;;;;;33.87;23.53;;;7.50;99.90;;;;;;5033073;28;20443;-46
2023/04/10 01:06:41;;;;;;;28.40;21.50;;;7.90;99.90;;;;;;5033150;28;20460;-47
2023/04/10 01:09:20;;;;;;;28.87;20.33;;;8.00;99.90;;;;;;5034184;28;20436;-47
2023/04/10 01:11:53;;;;;;;28.50;21.37;;;7.80;99.90;;;;;;5034412;28;20449;-46
2023/04/10 01:14:32;;;;;;;26.00;18.67;;;7.80;99.90;;;;;;5034528;28;20483;-47
2023/04/10 01:17:06;;;;;;;29.17;20.03;;;7.90;99.90;;;;;;5035741;28;20493;-46
2023/04/10 01:19:53;;;;;;;27.10;19.77;;;7.60;99.90;;;;;;5034362;28;20855;-47
2023/04/10 01:22:26;;;;;;;26.00;20.10;;;8.00;99.90;;;;;;5036098;28;20457;-46
2023/04/10 01:25:11;;;;;;;25.67;20.70;;;7.80;99.90;;;;;;5033306;28;20455;-46
2023/04/10 01:27:46;;;;;;;25.00;19.77;;;8.30;99.90;;;;;;5034222;28;20470;-46
2023/04/10 01:30:20;;;;;;;33.03;20.00;;;7.90;99.90;;;;;;5032316;28;20544;-47
2023/04/10 01:32:47;;;;;;;25.60;20.50;;;7.80;99.90;;;;;;5032386;28;20466;-47
2023/04/10 01:35:16;;;;;;;27.57;20.30;;;7.20;99.90;;;;;;5033641;28;20469;-47
2023/04/10 01:37:44;;;;;;;27.57;19.10;;;7.90;99.90;;;;;;5032365;28;20455;-46
2023/04/10 01:40:15;;;;;;;25.53;19.17;;;7.90;99.90;;;;;;5031972;28;20458;-46
2023/04/10 01:42:46;;;;;;;31.20;22.20;;;7.70;99.90;;;;;;5032298;28;20954;-46
2023/04/10 01:45:19;;;;;;;25.90;18.90;;;7.60;99.90;;;;;;5032245;28;20482;-46
2023/04/10 01:47:48;;;;;;;30.97;20.70;;;7.50;99.90;;;;;;5032293;28;21034;-47
2023/04/10 01:50:16;;;;;;;26.67;18.97;;;7.60;99.90;;;;;;5031876;28;20634;-48
2023/04/10 01:52:43;;;;;;;29.17;21.43;;;7.50;99.90;;;;;;5032060;28;20475;-47
2023/04/10 01:55:18;;;;;;;28.20;19.87;;;7.70;99.90;;;;;;5069811;22;20496;-41
2023/04/10 01:57:52;;;;;;;24.57;19.13;;;7.40;99.90;;;;;;5052917;28;20481;-44
2023/04/10 02:00:21;;;;;;;26.00;19.53;;;7.40;99.90;;;;;;5054366;28;20445;-44
2023/04/10 02:02:48;;;;;;;25.10;18.40;;;6.90;99.90;;;;;;5053916;28;20437;-44
2023/04/10 02:05:16;;;;;;;29.07;21.13;;;7.00;99.90;;;;;;5052121;28;20886;-43
2023/04/10 02:07:46;;;;;;;31.00;21.60;;;7.30;99.90;;;;;;5053320;28;20463;-43
2023/04/10 02:10:20;;;;;;;30.60;20.97;;;7.30;99.90;;;;;;5052872;28;20441;-45
2023/04/10 02:12:52;;;;;;;28.33;20.50;;;7.40;99.90;;;;;;5051969;28;20464;-44
2023/04/10 02:15:27;;;;;;;25.70;19.57;;;7.20;99.90;;;;;;5053349;28;20536;-47
2023/04/10 02:17:56;;;;;;;26.77;21.10;;;7.20;99.90;;;;;;5053581;28;20430;-43
2023/04/10 02:20:24;;;;;;;31.20;21.17;;;7.20;99.90;;;;;;5053091;28;20506;-45
2023/04/10 02:22:52;;;;;;;29.30;21.57;;;7.30;99.90;;;;;;5054774;28;20795;-45
2023/04/10 02:25:18;;;;;;;30.07;21.30;;;7.40;99.90;;;;;;5053559;28;20527;-43
2023/04/10 02:27:45;;;;;;;30.57;21.60;;;7.40;99.90;;;;;;5053565;28;20461;-44
2023/04/10 02:30:12;;;;;;;27.60;22.30;;;7.20;99.90;;;;;;5053028;28;20451;-43
2023/04/10 02:32:40;;;;;;;26.73;19.93;;;6.50;99.90;;;;;;5054106;28;20461;-46
2023/04/10 02:35:08;;;;;;;23.90;19.43;;;7.20;99.90;;;;;;5053517;28;20548;-45
2023/04/10 02:37:37;;;;;;;24.57;20.50;;;6.90;99.90;;;;;;5054954;28;20458;-45
2023/04/10 02:40:04;;;;;;;29.47;23.53;;;6.90;99.90;;;;;;5053736;28;20890;-41
2023/04/10 02:42:41;;;;;;;28.20;20.60;;;7.00;99.90;;;;;;5053906;28;20439;-41
2023/04/10 02:45:09;;;;;;;24.20;20.00;;;6.90;99.90;;;;;;5052017;28;20496;-43
2023/04/10 02:47:41;;;;;;;28.70;20.47;;;7.10;99.90;;;;;;5051603;28;20873;-44
2023/04/10 02:50:08;;;;;;;30.57;20.70;;;7.10;99.90;;;;;;5051160;28;20460;-43
2023/04/10 02:52:37;;;;;;;23.47;19.30;;;6.70;99.90;;;;;;5052738;28;20451;-43
2023/04/10 02:55:05;;;;;;;28.23;21.87;;;6.40;99.90;;;;;;5051060;28;20486;-44
2023/04/10 02:57:35;;;;;;;28.80;20.07;;;6.90;99.90;;;;;;5051203;28;20562;-44
2023/04/10 03:00:02;;;;;;;28.37;21.27;;;7.00;99.90;;;;;;5052042;28;20477;-44
2023/04/10 03:02:32;;;;;;;30.90;21.73;;;7.00;99.90;;;;;;5051098;28;20452;-44
2023/04/10 03:05:07;;;;;;;26.30;20.53;;;6.80;99.90;;;;;;5051141;28;20473;-43
2023/04/10 03:07:35;;;;;;;30.60;21.90;;;6.60;99.90;;;;;;5050930;28;20442;-44
2023/04/10 03:10:01;;;;;;;27.33;19.87;;;7.30;99.90;;;;;;5051902;28;20437;-45
2023/04/10 03:12:28;;;;;;;26.33;20.40;;;6.80;99.90;;;;;;5051116;28;20468;-44
2023/04/10 03:14:56;;;;;;;27.43;22.37;;;7.00;99.90;;;;;;5050607;28;20512;-46
2023/04/10 03:17:22;;;;;;;28.43;20.50;;;6.60;99.90;;;;;;5050839;28;20452;-43
2023/04/10 03:19:49;;;;;;;32.90;22.80;;;6.80;99.90;;;;;;5050400;28;20431;-44
2023/04/10 03:22:17;;;;;;;30.93;21.27;;;6.30;99.90;;;;;;5050870;28;20467;-47
2023/04/10 03:24:44;;;;;;;32.93;21.57;;;6.90;99.90;;;;;;5052026;28;20419;-46
2023/04/10 03:27:11;;;;;;;26.60;20.23;;;6.60;99.90;;;;;;5050947;28;20931;-43
2023/04/10 03:29:38;;;;;;;29.07;20.33;;;6.80;99.90;;;;;;5050516;28;20453;-44
2023/04/10 03:32:05;;;;;;;27.73;22.40;;;7.00;99.90;;;;;;5050764;28;20455;-44
2023/04/10 03:34:33;;;;;;;29.30;21.00;;;6.30;99.90;;;;;;5050367;28;20492;-42
2023/04/10 03:37:00;;;;;;;28.90;21.50;;;6.70;99.90;;;;;;5051907;28;20977;-43
2023/04/10 03:39:28;;;;;;;30.93;23.10;;;6.40;99.90;;;;;;5050492;28;20947;-45
2023/04/10 03:41:54;;;;;;;29.60;21.27;;;6.40;99.90;;;;;;5050536;28;20506;-46
2023/04/10 03:44:24;;;;;;;36.97;21.60;;;6.50;99.90;;;;;;5050671;28;20460;-43
2023/04/10 03:46:50;;;;;;;29.07;22.47;;;6.90;99.90;;;;;;5051007;28;20455;-43
2023/04/10 03:49:17;;;;;;;28.20;21.57;;;6.20;99.90;;;;;;5054395;28;20563;-44
2023/04/10 03:51:45;;;;;;;27.40;21.07;;;6.50;99.90;;;;;;5054942;28;20883;-44
2023/04/10 03:54:11;;;;;;;31.10;22.83;;;6.30;99.90;;;;;;5054345;28;20486;-44
2023/04/10 03:56:39;;;;;;;28.33;23.33;;;6.30;99.90;;;;;;5056104;28;20433;-44
2023/04/10 03:59:06;;;;;;;28.73;23.70;;;6.30;99.90;;;;;;5054274;28;20430;-45
2023/04/10 04:01:38;;;;;;;31.00;22.93;;;6.00;99.90;;;;;;5054733;28;20534;-44
2023/04/10 04:04:09;;;;;;;33.17;22.83;;;6.60;99.90;;;;;;5054222;28;20463;-45
2023/04/10 04:06:55;;;;;;;35.70;24.30;;;6.30;99.90;;;;;;5055379;28;20441;-45
2023/04/10 04:09:29;;;;;;;27.10;21.43;;;6.20;99.90;;;;;;5053962;28;20458;-46
2023/04/10 04:12:05;;;;;;;26.73;21.13;;;6.50;99.90;;;;;;5055511;28;20403;-44
2023/04/10 04:14:57;;;;;;;30.17;21.73;;;6.40;99.90;;;;;;5054008;28;20924;-44
2023/04/10 04:17:53;;;;;;;31.27;22.70;;;6.40;99.90;;;;;;5039000;28;20447;-44
2023/04/10 04:20:41;;;;;;;35.73;24.10;;;6.30;99.90;;;;;;5054130;28;20463;-45
2023/04/10 04:23:16;;;;;;;33.10;23.07;;;6.30;99.90;;;;;;5054270;28;20827;-43
2023/04/10 04:26:04;;;;;;;31.23;21.30;;;6.30;99.90;;;;;;5054046;28;20421;-45
2023/04/10 04:28:48;;;;;;;29.93;22.33;;;6.30;99.90;;;;;;5053477;28;20439;-43
2023/04/10 04:31:31;;;;;;;27.17;21.17;;;6.10;99.90;;;;;;5055891;28;20451;-46
2023/04/10 04:34:16;;;;;;;32.30;22.00;;;6.50;99.90;;;;;;5054814;28;20498;-45
2023/04/10 04:36:50;;;;;;;30.70;21.03;;;6.50;99.90;;;;;;5053959;28;20534;-44
2023/04/10 04:39:36;;;;;;;29.00;20.53;;;6.50;99.90;;;;;;5054017;28;20454;-43
2023/04/10 04:42:30;;;;;;;31.20;22.30;;;6.30;99.90;;;;;;5054327;28;20454;-44
2023/04/10 04:45:06;;;;;;;23.03;19.57;;;6.20;99.90;;;;;;5055964;28;20556;-44
2023/04/10 04:47:52;;;;;;;28.77;20.60;;;6.30;99.90;;;;;;5055441;28;20431;-46
2023/04/10 04:50:30;;;;;;;28.33;21.13;;;6.20;99.90;;;;;;5055618;28;20431;-45
2023/04/10 04:53:17;;;;;;;31.27;20.90;;;7.00;99.90;;;;;;5013863;28;20441;-44
2023/04/10 04:56:08;;;;;;;28.53;21.50;;;6.40;99.90;;;;;;5053652;28;20447;-44
2023/04/10 04:58:37;;;;;;;27.13;21.00;;;6.70;99.90;;;;;;5054304;28;20516;-44
2023/04/10 05:01:27;;;;;;;25.27;21.10;;;6.70;99.90;;;;;;5054918;28;20795;-44
2023/04/10 05:04:07;;;;;;;30.20;20.93;;;6.80;99.90;;;;;;5053133;28;20476;-43
2023/04/10 05:06:52;;;;;;;27.00;19.37;;;6.80;99.90;;;;;;5054262;28;20432;-47
2023/04/10 05:09:34;;;;;;;26.43;21.03;;;6.60;99.90;;;;;;5052502;28;20451;-43
2023/04/10 05:12:23;;;;;;;26.13;20.13;;;6.90;99.90;;;;;;5052867;28;20448;-44
2023/04/10 05:15:01;;;;;;;25.37;20.10;;;7.00;99.90;;;;;;5052831;28;20488;-45
2023/04/10 05:17:44;;;;;;;26.67;20.43;;;6.90;99.90;;;;;;5052730;28;20453;-46
2023/04/10 05:20:34;;;;;;;29.10;21.57;;;6.90;99.90;;;;;;5052786;28;20448;-45
2023/04/10 05:23:19;;;;;;;30.57;20.10;;;7.10;99.90;;;;;;5052837;28;20468;-45
2023/04/10 05:25:45;;;;;;;26.37;19.20;;;7.00;99.90;;;;;;5054001;28;20437;-43
2023/04/10 05:28:32;;;;;;;24.67;18.00;;;7.10;99.90;;;;;;5053126;28;20540;-43
2023/04/10 05:31:21;;;;;;;34.33;19.97;;;7.30;99.90;;;;;;5054433;28;20464;-43
2023/04/10 05:34:09;;;;;;;26.97;19.97;;;7.30;99.90;;;;;;5052712;28;20489;-43
2023/04/10 05:36:51;;;;;;;25.20;18.77;;;7.30;99.90;;;;;;5052666;28;20499;-44
2023/04/10 05:39:28;;;;;;;21.77;18.17;;;7.70;99.90;;;;;;5052345;28;20799;-44
2023/04/10 05:42:12;;;;;;;27.77;19.30;;;7.70;99.90;;;;;;5052540;28;21109;-42
2023/04/10 05:44:50;;;;;;;26.27;18.80;;;7.90;99.90;;;;;;5052292;28;20468;-45
2023/04/10 05:47:36;;;;;;;24.83;19.53;;;8.60;99.90;;;;;;5052287;28;20424;-44
2023/04/10 05:50:23;;;;;;;27.83;19.67;;;8.60;99.90;;;;;;5053863;28;20440;-45
2023/04/10 05:52:52;;;;;;;24.50;18.00;;;8.70;99.90;;;;;;5054491;28;20445;-44
2023/04/10 05:55:26;;;;;;;26.53;19.40;;;8.90;99.90;;;;;;5052116;28;20552;-44
2023/04/10 05:58:13;;;;;;;23.93;18.10;;;9.20;99.90;;;;;;5051746;28;20465;-43
2023/04/10 06:00:58;;;;;;;25.33;18.20;;;9.70;99.90;;;;;;5052068;28;20542;-44
2023/04/10 06:03:38;;;;;;;22.77;16.80;;;9.40;99.90;;;;;;5051934;28;20451;-43
2023/04/10 06:06:08;;;;;;;24.00;17.90;;;9.20;99.90;;;;;;5052139;28;20826;-44
2023/04/10 06:08:34;;;;;;;24.60;18.80;;;10.00;99.90;;;;;;5051959;28;20446;-42
2023/04/10 06:11:01;;;;;;;25.10;16.90;;;9.30;99.90;;;;;;5051861;28;20493;-43
2023/04/10 06:13:29;;;;;;;25.67;18.17;;;10.30;99.90;;;;;;5052709;28;20986;-42
2023/04/10 06:15:58;;;;;;;26.07;18.13;;;10.10;99.90;;;;;;5052179;28;20536;-43
2023/04/10 06:18:25;;;;;;;26.90;17.53;;;10.60;99.90;;;;;;5051778;28;20525;-43
2023/04/10 06:20:52;;;;;;;22.50;16.47;;;10.70;99.90;;;;;;5053096;28;20446;-46
2023/04/10 06:23:20;;;;;;;21.37;18.20;;;10.50;99.90;;;;;;5051669;28;20446;-44
2023/04/10 06:25:47;;;;;;;26.13;17.70;;;10.60;99.90;;;;;;5052854;28;20824;-44
2023/04/10 06:28:14;;;;;;;22.37;16.20;;;10.60;99.90;;;;;;5051201;28;20443;-44
2023/04/10 06:30:42;;;;;;;23.20;18.00;;;10.90;99.90;;;;;;5051452;28;20513;-44
2023/04/10 06:33:09;;;;;;;20.40;16.47;;;10.80;99.90;;;;;;5051368;28;20448;-43
2023/04/10 06:35:41;;;;;;;21.50;16.10;;;11.40;99.90;;;;;;5051397;28;20467;-44
2023/04/10 06:38:08;;;;;;;20.70;17.30;;;11.00;99.90;;;;;;5051050;28;20486;-45
2023/04/10 06:40:37;;;;;;;21.10;17.53;;;11.20;99.90;;;;;;5051706;28;20795;-44
2023/04/10 06:43:04;;;;;;;21.43;17.57;;;11.10;99.90;;;;;;5052519;28;20498;-43
2023/04/10 06:45:37;;;;;;;21.47;18.10;;;11.30;99.90;;;;;;5051067;28;20507;-45
2023/04/10 06:48:04;;;;;;;22.77;16.53;;;11.20;99.90;;;;;;5051365;28;20442;-44
2023/04/10 06:50:31;;;;;;;24.10;18.50;;;11.30;99.90;;;;;;5052349;28;20435;-44
2023/04/10 06:52:59;;;;;;;26.17;18.43;;;11.20;99.90;;;;;;5052541;28;20431;-44
2023/04/10 06:55:25;;;;;;;25.80;20.03;;;11.40;99.90;;;;;;5052138;28;20672;-44
2023/04/10 06:57:54;;;;;;;27.27;20.90;;;11.70;99.90;;;;;;5052627;28;20434;-42
2023/04/10 07:00:22;;;;;;;24.77;20.47;;;11.20;99.90;;;;;;5052254;28;20812;-43
2023/04/10 07:02:48;;;;;;;31.20;22.37;;;11.40;99.90;;;;;;5052504;28;20883;-44
2023/04/10 07:05:15;;;;;;;25.23;21.67;;;11.50;99.90;;;;;;5052734;28;20452;-45
2023/04/10 07:07:42;;;;;;;28.20;22.80;;;11.20;99.90;;;;;;5054120;28;20518;-43
2023/04/10 07:10:10;;;;;;;32.50;25.07;;;11.10;99.90;;;;;;5053885;28;20951;-46
2023/04/10 07:12:36;;;;;;;29.43;25.47;;;11.20;99.90;;;;;;5056212;28;20950;-43
2023/04/10 07:15:06;;;;;;;34.40;28.80;;;11.40;99.90;;;;;;5055374;28;20490;-46
2023/04/10 07:17:33;;;;;;;33.37;26.50;;;11.10;99.90;;;;;;5052615;28;20448;-46
2023/04/10 07:20:00;;;;;;;37.47;30.37;;;11.30;99.90;;;;;;5053412;28;20458;-44
2023/04/10 07:22:27;;;;;;;34.83;28.77;;;11.10;99.90;;;;;;5053311;28;20434;-43
2023/04/10 07:25:13;;;;;;;31.30;27.50;;;11.20;99.90;;;;;;5054645;28;20450;-46
2023/04/10 07:27:42;;;;;;;40.67;29.90;;;11.40;99.90;;;;;;5052889;28;20848;-43
2023/04/10 07:30:11;;;;;;;35.00;28.07;;;11.20;99.90;;;;;;5052834;28;20501;-42
2023/04/10 07:32:39;;;;;;;37.20;28.97;;;11.20;99.90;;;;;;5052331;28;20459;-44
2023/04/10 07:35:06;;;;;;;34.03;28.50;;;11.40;99.90;;;;;;5052364;28;20542;-43
2023/04/10 07:37:33;;;;;;;33.93;27.33;;;11.10;99.90;;;;;;5052505;28;20467;-44
2023/04/10 07:40:01;;;;;;;37.73;29.23;;;11.10;99.90;;;;;;5052516;28;20440;-46
2023/04/10 07:42:27;;;;;;;33.40;26.27;;;11.70;99.90;;;;;;5053230;28;20418;-44
2023/04/10 07:44:54;;;;;;;37.83;29.07;;;11.60;99.90;;;;;;5052703;28;20470;-46
2023/04/10 07:47:22;;;;;;;32.83;29.23;;;11.20;99.90;;;;;;5052772;28;20561;-44
2023/04/10 07:49:49;;;;;;;36.33;27.33;;;11.60;99.90;;;;;;5052654;28;20832;-45
2023/04/10 07:52:16;;;;;;;37.67;29.10;;;11.90;99.90;;;;;;5052913;28;20512;-44
2023/04/10 07:54:42;;;;;;;35.47;29.37;;;11.20;99.90;;;;;;5051465;28;20973;-45
2023/04/10 07:57:09;;;;;;;35.23;28.27;;;11.60;99.90;;;;;;5051986;28;20427;-44
2023/04/10 07:59:35;;;;;;;31.50;27.47;;;11.30;99.90;;;;;;5051588;28;20940;-44
2023/04/10 08:02:02;;;;;;;36.77;27.57;;;11.50;99.90;;;;;;5051582;28;20431;-47
2023/04/10 08:04:30;;;;;;;36.77;28.03;;;11.70;99.90;;;;;;5051594;28;20475;-44
2023/04/10 08:06:57;;;;;;;35.97;28.50;;;11.70;99.90;;;;;;5052023;28;20437;-45
2023/04/10 08:09:23;;;;;;;33.50;27.90;;;11.80;99.90;;;;;;5051438;28;20435;-45
2023/04/10 08:11:50;;;;;;;38.00;27.80;;;12.10;99.90;;;;;;5051664;28;20628;-43
2023/04/10 08:14:17;;;;;;;40.20;28.53;;;11.60;99.90;;;;;;5052657;28;20459;-45
2023/04/10 08:16:43;;;;;;;36.53;28.53;;;11.60;99.90;;;;;;5052016;28;20485;-44
2023/04/10 08:19:10;;;;;;;32.93;29.03;;;12.00;99.90;;;;;;5052047;28;20925;-43
2023/04/10 08:21:38;;;;;;;38.13;27.87;;;12.10;99.90;;;;;;5052356;28;20435;-47
2023/04/10 08:24:05;;;;;;;35.70;29.40;;;11.80;99.90;;;;;;5054363;28;20841;-48
2023/04/10 08:26:32;;;;;;;44.67;30.80;;;11.90;99.90;;;;;;5054636;28;20442;-45
2023/04/10 08:29:00;;;;;;;32.90;28.30;;;12.20;99.90;;;;;;5054638;28;20408;-44
2023/04/10 08:31:28;;;;;;;35.70;28.77;;;12.10;99.90;;;;;;5054894;28;20441;-44
2023/04/10 08:33:54;;;;;;;38.57;31.53;;;12.20;99.90;;;;;;5057053;28;20960;-44
2023/04/10 08:36:21;;;;;;;37.87;30.83;;;12.60;99.90;;;;;;5058775;28;20478;-45
2023/04/10 08:38:49;;;;;;;37.53;30.50;;;12.40;99.90;;;;;;5058096;28;20938;-44
2023/04/10 08:41:17;;;;;;;37.40;31.47;;;11.80;99.90;;;;;;5058948;28;20440;-45
2023/04/10 08:43:44;;;;;;;36.07;30.80;;;12.40;99.90;;;;;;5059708;28;20492;-45
2023/04/10 08:46:11;;;;;;;34.43;29.57;;;12.30;99.90;;;;;;5058959;28;20870;-45
2023/04/10 08:48:44;;;;;;;32.57;29.10;;;12.40;99.90;;;;;;5059459;28;20466;-43
2023/04/10 08:51:15;;;;;;;34.17;29.20;;;12.50;99.90;;;;;;5059195;28;20814;-45
2023/04/10 08:53:44;;;;;;;39.00;29.70;;;12.70;99.90;;;;;;5061555;28;20945;-45
2023/04/10 08:56:14;;;;;;;38.90;30.80;;;13.10;99.90;;;;;;5062584;28;20472;-43
2023/04/10 08:58:41;;;;;;;36.90;31.13;;;13.10;99.90;;;;;;5063504;28;20513;-43
2023/04/10 09:01:09;;;;;;;36.53;29.90;;;12.70;99.90;;;;;;5063471;28;20453;-47
2023/04/10 09:03:36;;;;;;;35.90;29.07;;;12.90;99.90;;;;;;5064366;28;20424;-45
2023/04/10 09:06:04;;;;;;;32.73;26.73;;;12.80;99.90;;;;;;5064724;28;20426;-42
2023/04/10 09:08:31;;;;;;;36.70;27.50;;;13.10;99.90;;;;;;5060748;28;20445;-45
2023/04/10 09:10:58;;;;;;;32.50;25.90;;;12.90;99.90;;;;;;5059204;28;20426;-46
2023/04/10 09:13:40;;;;;;;33.90;24.17;;;13.30;99.90;;;;;;5058443;28;20815;-44
2023/04/10 09:16:08;;;;;;;27.13;22.87;;;13.00;99.90;;;;;;5056140;28;20487;-44
2023/04/10 09:18:46;;;;;;;28.47;23.67;;;13.00;99.90;;;;;;5055843;28;20541;-45
2023/04/10 09:21:14;;;;;;;29.73;24.00;;;13.60;99.90;;;;;;5060136;28;20819;-44
2023/04/10 09:23:43;;;;;;;29.10;23.70;;;13.20;99.90;;;;;;5058953;28;20440;-44
2023/04/10 09:26:26;;;;;;;30.00;24.13;;;13.50;99.90;;;;;;5058949;28;20934;-44
2023/04/10 09:29:02;;;;;;;29.07;23.40;;;13.30;99.90;;;;;;5056746;28;20438;-45
2023/04/10 09:31:31;;;;;;;29.90;24.07;;;13.20;99.90;;;;;;5055374;28;20437;-45
2023/04/10 09:34:09;;;;;;;25.73;20.97;;;13.20;99.90;;;;;;5056265;28;20460;-44
2023/04/10 09:36:36;;;;;;;24.90;20.23;;;13.50;99.90;;;;;;5054461;28;20471;-44
2023/04/10 09:39:03;;;;;;;24.03;21.30;;;13.30;99.90;;;;;;5057624;28;20427;-45
2023/04/10 09:41:30;;;;;;;24.57;20.30;;;13.40;99.90;;;;;;5063082;28;20446;-44
2023/04/10 09:44:10;;;;;;;23.90;19.67;;;13.60;99.90;;;;;;5060726;28;20452;-46
2023/04/10 09:46:37;;;;;;;25.20;19.23;;;13.80;99.90;;;;;;5055622;28;21010;-47
2023/04/10 09:49:06;;;;;;;25.37;19.50;;;13.80;99.90;;;;;;5055102;28;20443;-47
2023/04/10 09:51:34;;;;;;;27.40;18.70;;;13.60;99.90;;;;;;5054138;28;20504;-46
2023/04/10 09:54:01;;;;;;;18.53;15.80;;;13.40;99.90;;;;;;5053509;28;20912;-46
2023/04/10 09:56:30;;;;;;;19.97;16.30;;;13.20;99.90;;;;;;5053997;28;20563;-46
2023/04/10 09:58:58;;;;;;;21.03;16.70;;;13.90;99.90;;;;;;5053197;28;20576;-46
2023/04/10 10:01:28;;;;;;;25.23;17.20;;;13.90;99.90;;;;;;5053585;28;20457;-47
2023/04/10 10:03:56;;;;;;;20.30;16.83;;;13.90;99.90;;;;;;5053446;28;20441;-47
2023/04/10 10:06:23;;;;;;;23.77;17.40;;;14.10;99.90;;;;;;5053171;28;20430;-47
2023/04/10 10:08:51;;;;;;;19.07;15.23;;;13.50;99.90;;;;;;5052931;28;20801;-48
2023/04/10 10:11:21;;;;;;;18.20;14.53;;;13.50;99.90;;;;;;5052955;28;20513;-45
2023/04/10 10:13:52;;;;;;;20.43;14.80;;;13.40;99.90;;;;;;5051648;28;20449;-46
2023/04/10 10:16:21;;;;;;;21.93;15.43;;;14.30;99.90;;;;;;5052942;28;20485;-46
2023/04/10 10:18:57;;;;;;;20.03;16.03;;;14.10;99.90;;;;;;5052368;28;20434;-46
2023/04/10 10:21:25;;;;;;;18.37;15.43;;;13.50;99.90;;;;;;5052831;28;20588;-47
2023/04/10 10:23:53;;;;;;;20.43;16.23;;;14.00;99.90;;;;;;5052718;28;20462;-45
2023/04/10 10:26:22;;;;;;;19.90;15.87;;;14.20;99.90;;;;;;5051229;28;20453;-46
2023/04/10 10:28:51;;;;;;;21.00;16.50;;;14.10;99.90;;;;;;5052839;28;20439;-46
2023/04/10 10:31:19;;;;;;;21.80;16.13;;;14.00;99.90;;;;;;5052405;28;20449;-45
2023/04/10 10:33:46;;;;;;;19.30;15.10;;;13.80;99.90;;;;;;5052841;28;20442;-45
2023/04/10 10:36:16;;;;;;;19.37;15.17;;;14.30;99.90;;;;;;5054747;28;20474;-45
2023/04/10 10:38:53;;;;;;;17.87;15.40;;;14.10;99.90;;;;;;5054634;28;20496;-46
2023/04/10 10:41:27;;;;;;;19.17;15.40;;;14.50;99.90;;;;;;5053693;28;20503;-48
2023/04/10 10:44:13;;;;;;;21.57;15.20;;;14.10;99.90;;;;;;5053971;28;20426;-46
2023/04/10 10:46:44;;;;;;;15.73;12.83;;;14.80;99.90;;;;;;5052624;28;20484;-46
2023/04/10 10:49:10;;;;;;;20.10;14.20;;;14.30;99.90;;;;;;5051990;28;20415;-46
2023/04/10 10:51:46;;;;;;;16.33;13.10;;;14.20;99.90;;;;;;5052179;28;20438;-46
2023/04/10 10:54:29;;;;;;;16.80;14.40;;;14.90;99.90;;;;;;5051847;28;20472;-47
2023/04/10 10:56:56;;;;;;;18.30;13.47;;;14.50;99.90;;;;;;5052123;28;20470;-47
2023/04/10 10:59:59;;;;;;;15.67;12.97;;;14.60;99.90;;;;;;5052057;28;20522;-46
2023/04/10 11:02:25;;;;;;;15.33;12.40;;;14.70;99.90;;;;;;5052428;28;20443;-46
2023/04/10 11:04:52;;;;;;;17.43;12.20;;;14.60;99.90;;;;;;5052196;28;20535;-46
2023/04/10 11:07:20;;;;;;;14.93;11.87;;;14.40;99.80;;;;;;5051827;28;20423;-46
2023/04/10 11:09:50;;;;;;;14.20;10.67;;;15.10;99.90;;;;;;5051457;28;20431;-46
2023/04/10 11:12:19;;;;;;;12.70;11.00;;;14.60;99.50;;;;;;5051577;28;20422;-46
2023/04/10 11:14:57;;;;;;;13.40;11.47;;;14.90;99.50;;;;;;5051711;28;20492;-46
2023/04/10 11:17:52;;;;;;;16.13;11.23;;;15.30;99.20;;;;;;5051870;28;20568;-46
2023/04/10 11:20:20;;;;;;;12.30;10.00;;;15.10;98.90;;;;;;5044173;28;20459;-46
2023/04/10 11:23:08;;;;;;;13.20;10.10;;;14.80;98.90;;;;;;5051939;28;20767;-46
2023/04/10 11:25:50;;;;;;;12.43;10.27;;;14.80;98.80;;;;;;5051835;28;21022;-46
2023/04/10 11:28:35;;;;;;;13.30;9.63;;;15.10;99.10;;;;;;5048552;28;20478;-46
2023/04/10 11:31:17;;;;;;;10.77;9.27;;;15.00;98.90;;;;;;5050886;28;20975;-46
2023/04/10 11:33:44;;;;;;;14.17;10.80;;;15.10;98.80;;;;;;5051705;28;20495;-46
2023/04/10 11:36:14;;;;;;;12.43;9.77;;;15.00;98.60;;;;;;5050375;28;20557;-46
2023/04/10 11:38:53;;;;;;;14.30;11.70;;;14.70;98.10;;;;;;5051325;28;20890;-46
2023/04/10 11:41:20;;;;;;;11.50;10.30;;;15.10;98.50;;;;;;5051728;28;20496;-46
2023/04/10 11:43:51;;;;;;;11.70;10.50;;;15.10;98.50;;;;;;5051497;28;20442;-47
2023/04/10 11:46:18;;;;;;;16.00;10.80;;;14.90;98.40;;;;;;5051666;28;20437;-46
2023/04/10 11:48:45;;;;;;;12.63;9.83;;;15.20;98.20;;;;;;5051529;28;20445;-45
2023/04/10 11:51:13;;;;;;;11.07;9.50;;;15.40;97.80;;;;;;5051781;28;20434;-47
2023/04/10 11:53:41;;;;;;;11.53;8.60;;;14.90;97.60;;;;;;5051353;28;20440;-46
2023/04/10 11:56:15;;;;;;;10.90;8.60;;;14.80;97.30;;;;;;5050123;28;20485;-46
2023/04/10 11:58:42;;;;;;;14.13;8.80;;;15.30;97.20;;;;;;5051999;28;20532;-48
2023/04/10 12:01:13;;;;;;;8.47;7.53;;;15.30;97.20;;;;;;5051402;28;20438;-46
2023/04/10 12:03:41;;;;;;;9.70;8.50;;;15.50;97.30;;;;;;5051486;28;20785;-46
2023/04/10 12:06:10;;;;;;;11.80;8.47;;;15.30;96.90;;;;;;5051492;28;20422;-45
2023/04/10 12:08:39;;;;;;;11.90;8.90;;;15.40;96.80;;;;;;5052366;28;20954;-47
2023/04/10 12:11:08;;;;;;;10.47;9.20;;;15.20;96.50;;;;;;5055304;28;20430;-47
2023/04/10 12:13:35;;;;;;;10.10;8.70;;;15.30;96.40;;;;;;5053776;28;20437;-47
2023/04/10 12:16:04;;;;;;;12.07;8.60;;;15.20;96.50;;;;;;5055174;28;20513;-47
2023/04/10 12:18:31;;;;;;;10.80;9.63;;;15.30;96.50;;;;;;5054909;28;20432;-46
2023/04/10 12:20:59;;;;;;;9.50;8.50;;;15.40;96.10;;;;;;5055867;28;20800;-46
2023/04/10 12:23:27;;;;;;;11.97;8.80;;;15.10;95.80;;;;;;5055836;28;20435;-46
2023/04/10 12:26:11;;;;;;;9.33;8.00;;;15.70;96.10;;;;;;5055007;28;20455;-47
2023/04/10 12:28:39;;;;;;;8.97;8.07;;;15.60;95.80;;;;;;5053543;28;20447;-47
2023/04/10 12:31:06;;;;;;;9.80;8.67;;;15.30;95.60;;;;;;5054908;28;20774;-46
2023/04/10 12:33:33;;;;;;;9.77;7.70;;;15.40;95.60;;;;;;5055006;28;20431;-45
2023/04/10 12:36:00;;;;;;;9.53;7.27;;;15.90;95.60;;;;;;5054568;28;20473;-46
2023/04/10 12:38:41;;;;;;;9.40;7.40;;;15.60;95.40;;;;;;5053032;28;20442;-46
2023/04/10 12:41:10;;;;;;;9.73;8.63;;;15.90;94.70;;;;;;5054799;28;20467;-47
2023/04/10 12:43:39;;;;;;;9.17;8.27;;;15.60;94.80;;;;;;5054401;28;20409;-48
2023/04/10 12:46:07;;;;;;;11.23;7.67;;;15.60;94.70;;;;;;5054706;28;20816;-46
2023/04/10 12:48:34;;;;;;;11.57;8.53;;;15.80;94.80;;;;;;5054098;28;20439;-46
2023/04/10 12:51:02;;;;;;;9.77;7.87;;;15.30;94.30;;;;;;5054224;28;20432;-46
2023/04/10 12:53:29;;;;;;;12.83;9.20;;;15.30;94.20;;;;;;5054451;28;20443;-46